M I D A S
Marine Information and Data Acquisition System
Tripno 903 of the Zeeleeuw from 2005-05-24 06:47:01 to 2005-05-24 14:47:27
Back to CruiseResearch ActivitiesStationsMapUnderway DataData graphs

EquipmentUnitsComments
TimeDGPSUTC
LatitudeDGPSDM.mWGS84
LongitudeDGPSDM.mWGS84
SpeedMeteo Stationm/sRelative wind speed
DirectionMeteo StationdegRelative wind direction
TemperatureMeteo Stationdeg CelciusAir temperature
PressureMeteo StationPaAtmospheric pressure
HumidityMeteo Station%Relative humidity
Missing or incorrect values are displayed as -999
Metereological data collected by the RV Zeeleeuw from 2005-05-24 05:41:57 to 2005-05-24 14:51:47
Time Latitude Longitude Speed Direction Temperature Pressure Humidity
2005-05-24 05:43 51°13.597 2°56.109 3.1 18 11.3 101950 81
2005-05-24 05:44 51°13.597 2°56.109 2.5 83 11.3 101950 81
2005-05-24 05:45 51°13.597 2°56.109 3.1 47 11.3 101950 81
2005-05-24 05:46 51°13.597 2°56.109 4.3 39 11.3 101950 81
2005-05-24 05:47 51°13.597 2°56.109 4 45 11.3 101950 81
2005-05-24 05:48 51°13.597 2°56.108 4.1 41 11.3 101950 81
2005-05-24 05:49 51°13.597 2°56.108 3.9 34 11.3 101950 81
2005-05-24 05:50 51°13.597 2°56.109 2.4 68 11.3 101950 82
2005-05-24 05:51 51°13.597 2°56.109 4.1 89 11.3 101960 82
2005-05-24 05:52 51°13.597 2°56.108 4.3 46 11.3 101960 82
2005-05-24 05:53 51°13.597 2°56.109 2.9 71 11.3 101950 82
2005-05-24 05:54 51°13.598 2°56.108 3.1 56 11.4 101950 82
2005-05-24 05:55 51°13.598 2°56.109 3.8 91 11.4 101950 82
2005-05-24 05:56 51°13.598 2°56.108 2.2 54 11.4 101960 82
2005-05-24 05:57 51°13.598 2°56.109 2.4 65 11.4 101960 82
2005-05-24 05:58 51°13.598 2°56.109 3.1 104 11.5 101960 82
2005-05-24 05:59 51°13.598 2°56.109 2.6 102 11.5 101960 82
2005-05-24 06:00 51°13.599 2°56.109 2.7 68 11.5 101960 82
2005-05-24 06:01 51°13.599 2°56.108 2.7 97 11.5 101960 82
2005-05-24 06:02 51°13.599 2°56.108 2.4 69 11.5 101960 82
2005-05-24 06:03 51°13.599 2°56.108 3.5 96 11.6 101960 82
2005-05-24 06:04 51°13.598 2°56.108 3.5 36 11.6 101960 81
2005-05-24 06:05 51°13.598 2°56.108 4.4 81 11.6 101960 81
2005-05-24 06:06 51°13.598 2°56.108 3.1 108 11.6 101960 81
2005-05-24 06:07 51°13.598 2°56.108 3.5 77 11.6 101970 81
2005-05-24 06:08 51°13.598 2°56.108 4.2 102 11.6 101960 81
2005-05-24 06:09 51°13.597 2°56.108 5 87 11.6 101970 81
2005-05-24 06:10 51°13.597 2°56.108 2 95 11.6 101960 81
2005-05-24 06:11 51°13.596 2°56.107 3.8 107 11.7 101970 81
2005-05-24 06:12 51°13.596 2°56.107 4.6 84 11.7 101970 81
2005-05-24 06:13 51°13.597 2°56.107 2.3 90 11.7 -999 81
2005-05-24 06:14 51°13.597 2°56.107 2.1 93 11.7 101970 81
2005-05-24 06:15 51°13.598 2°56.108 2 77 11.7 101970 81
2005-05-24 06:16 51°13.598 2°56.109 5.2 128 11.7 101980 81
2005-05-24 06:17 51°13.598 2°56.109 3.9 85 11.7 101970 81
2005-05-24 06:18 51°13.598 2°56.109 3.5 123 11.7 101980 81
2005-05-24 06:19 51°13.598 2°56.109 1.5 55 11.7 101980 81
2005-05-24 06:20 51°13.598 2°56.109 4.7 103 11.8 101980 81
2005-05-24 06:21 51°13.599 2°56.109 3.6 87 11.8 101970 81
2005-05-24 06:22 51°13.6 2°56.109 4.7 102 11.8 101970 80
2005-05-24 06:23 51°13.6 2°56.109 5.7 112 11.8 101980 80
2005-05-24 06:24 51°13.599 2°56.109 3.2 114 11.8 101980 81
2005-05-24 06:25 51°13.599 2°56.109 3.1 83 11.8 101980 80
2005-05-24 06:26 51°13.599 2°56.109 2.5 109 11.9 101980 81
2005-05-24 06:27 51°13.598 2°56.109 2.6 101 11.9 101980 80
2005-05-24 06:28 51°13.597 2°56.106 3.6 99 11.9 101980 80
2005-05-24 06:29 51°13.607 2°56.063 3.6 150 11.9 101980 80
2005-05-24 06:30 51°13.631 2°55.964 4 190 11.9 101980 80
2005-05-24 06:31 51°13.665 2°55.854 3.5 153 12 101990 81
2005-05-24 06:32 51°13.719 2°55.75 5.7 138 12 101980 80
2005-05-24 06:33 51°13.784 2°55.673 2.4 75 12 101990 79
2005-05-24 06:34 51°13.867 2°55.642 0.8 47 12 101990 79
2005-05-24 06:35 51°13.937 2°55.664 4.4 21 12 101990 79
2005-05-24 06:36 51°13.941 2°55.609 5.6 318 12 101980 79
2005-05-24 06:37 51°14.021 2°55.525 4.1 281 12 101980 79
2005-05-24 06:38 51°14.131 2°55.435 4.4 307 12.1 101990 79
2005-05-24 06:39 51°14.244 2°55.31 6.5 312 12.1 101980 79
2005-05-24 06:40 51°14.352 2°55.118 4.7 336 12.1 101980 79
2005-05-24 06:41 51°14.482 2°54.939 6.9 296 12.1 101970 79
2005-05-24 06:42 51°14.665 2°54.798 7.3 285 12.2 101980 79
2005-05-24 06:43 51°14.863 2°54.729 7.4 287 12.2 101980 79
2005-05-24 06:44 51°15.058 2°54.622 7.4 282 12.2 101980 80
2005-05-24 06:45 51°15.242 2°54.519 7.8 280 12.2 101980 80
2005-05-24 06:46 51°15.435 2°54.422 7.6 286 12.2 101980 80
2005-05-24 06:47 51°15.636 2°54.339 7.4 265 12.2 101980 80
2005-05-24 06:48 51°15.85 2°54.263 8.1 293 12.2 101990 80
2005-05-24 06:49 51°16.047 2°54.178 9.2 269 12.3 101980 80
2005-05-24 06:50 51°16.152 2°54.207 7.5 171 12.3 101980 80
2005-05-24 06:51 51°16.207 2°54.287 3.8 194 12.3 101980 80
2005-05-24 06:52 51°16.241 2°54.301 10.5 233 12.4 101980 79
2005-05-24 06:53 51°16.25 2°54.287 8.9 242 12.4 101980 80
2005-05-24 06:54 51°16.254 2°54.264 6 255 12.3 101970 80
2005-05-24 06:55 51°16.259 2°54.24 10.6 265 12.3 101970 80
2005-05-24 06:56 51°16.259 2°54.215 10.8 268 12.3 101980 80
2005-05-24 06:57 51°16.259 2°54.191 12.8 274 12.3 101970 80
2005-05-24 06:58 51°16.259 2°54.167 10.4 282 12.4 101970 80
2005-05-24 06:59 51°16.264 2°54.132 9.5 291 12.4 101970 80
2005-05-24 07:00 51°16.349 2°53.902 13.7 44 12.4 101960 81
2005-05-24 07:01 51°16.471 2°53.604 14.4 307 12.4 101940 80
2005-05-24 07:02 51°16.623 2°53.335 11.5 306 12.4 101960 80
2005-05-24 07:03 51°16.788 2°53.103 11.7 301 12.4 101970 80
2005-05-24 07:04 51°16.938 2°52.872 12.4 307 12.4 101970 80
2005-05-24 07:05 51°17.108 2°52.669 12.5 298 12.4 101970 80
2005-05-24 07:06 51°17.274 2°52.459 12 299 12.4 101960 80
2005-05-24 07:07 51°17.445 2°52.239 12.8 300 12.4 101970 80
2005-05-24 07:08 51°17.616 2°52.024 11.6 303 12.4 101980 80
2005-05-24 07:09 51°17.784 2°51.81 11.7 298 12.5 101970 80
2005-05-24 07:10 51°17.953 2°51.59 12 299 12.5 101970 80
2005-05-24 07:11 51°18.124 2°51.366 12.5 296 12.5 101960 80
2005-05-24 07:12 51°18.29 2°51.146 11.4 297 12.4 101960 80
2005-05-24 07:13 51°18.389 2°51.052 8 238 12.4 101970 80
2005-05-24 07:14 51°18.459 2°51.047 8.9 236 12.4 101980 80
2005-05-24 07:15 51°18.498 2°51.054 6.7 205 12.4 101980 80
2005-05-24 07:16 51°18.503 2°51.054 5.5 195 12.4 101980 80
2005-05-24 07:17 51°18.509 2°51.058 7.7 196 12.6 101990 80
2005-05-24 07:18 51°18.516 2°51.059 7.6 213 12.6 101990 78
2005-05-24 07:19 51°18.522 2°51.049 10.5 240 12.5 101980 80
2005-05-24 07:20 51°18.525 2°51.03 9.7 244 12.5 101980 80
2005-05-24 07:21 51°18.524 2°51.009 8.1 252 12.4 101980 80
2005-05-24 07:22 51°18.527 2°50.957 11.9 311 12.4 101980 80
2005-05-24 07:23 51°18.483 2°50.814 15.7 358 12.4 101970 80
2005-05-24 07:24 51°18.315 2°50.604 16.5 11 12.4 101960 80
2005-05-24 07:25 51°18.103 2°50.4 16.5 18 12.4 101950 80
2005-05-24 07:26 51°17.88 2°50.24 15.6 18 12.5 101960 79
2005-05-24 07:27 51°17.653 2°50.091 15.9 19 12.5 101960 79
2005-05-24 07:28 51°17.428 2°49.941 15.2 14 12.5 101970 79
2005-05-24 07:29 51°17.2 2°49.791 17.2 24 12.5 101960 79
2005-05-24 07:30 51°16.974 2°49.642 18 16 12.6 101970 79
2005-05-24 07:31 51°16.746 2°49.509 16.6 16 12.6 101960 78
2005-05-24 07:32 51°16.52 2°49.33 17.5 10 12.6 101970 78
2005-05-24 07:33 51°16.324 2°49.095 18 2 12.6 101940 77
2005-05-24 07:34 51°16.133 2°48.859 14.8 6 12.6 101950 77
2005-05-24 07:35 51°15.945 2°48.614 17 6 12.6 101960 77
2005-05-24 07:36 51°15.761 2°48.371 17.1 5 12.6 101950 76
2005-05-24 07:37 51°15.575 2°48.129 18.2 4 12.7 101960 77
2005-05-24 07:38 51°15.39 2°47.887 16 10 12.6 101940 76
2005-05-24 07:39 51°15.213 2°47.637 14.8 4 12.7 101960 78
2005-05-24 07:40 51°15.034 2°47.386 15.9 6 12.7 101960 78
2005-05-24 07:41 51°14.847 2°47.134 17.1 2 12.7 101960 77
2005-05-24 07:42 51°14.664 2°46.873 16.3 355 12.7 101950 77
2005-05-24 07:43 51°14.484 2°46.608 16 8 12.7 101960 77
2005-05-24 07:44 51°14.305 2°46.345 15.9 7 12.7 101960 76
2005-05-24 07:45 51°14.122 2°46.081 16 3 12.8 101960 77
2005-05-24 07:46 51°13.943 2°45.825 18.2 1 12.7 101960 75
2005-05-24 07:47 51°13.77 2°45.57 16.3 -999 12.8 101950 75
2005-05-24 07:48 51°13.597 2°45.331 16.3 9 12.8 101970 75
2005-05-24 07:49 51°13.418 2°45.107 16.5 13 12.8 101980 74
2005-05-24 07:50 51°13.217 2°44.886 15.1 4 12.8 101950 73
2005-05-24 07:51 51°13.03 2°44.64 16.7 2 12.8 101950 72
2005-05-24 07:52 51°12.844 2°44.391 17 4 12.9 101970 75
2005-05-24 07:53 51°12.657 2°44.143 19.3 18 12.8 101950 72
2005-05-24 07:54 51°12.472 2°43.893 19.3 7 12.9 101960 73
2005-05-24 07:55 51°12.288 2°43.644 20.7 11 12.9 101950 72
2005-05-24 07:56 51°12.106 2°43.395 17.3 13 12.9 101960 71
2005-05-24 07:57 51°11.926 2°43.153 18.3 11 12.9 101960 72
2005-05-24 07:58 51°11.757 2°42.897 18.9 5 12.9 101960 72
2005-05-24 07:59 51°11.568 2°42.665 19 5 12.9 101970 73
2005-05-24 08:00 51°11.385 2°42.418 20.1 10 12.9 101940 72
2005-05-24 08:01 51°11.232 2°42.202 19.3 9 12.8 101940 69
2005-05-24 08:02 51°11.129 2°42.054 14.9 5 12.8 101940 68
2005-05-24 08:03 51°11.112 2°42.004 14.4 312 12.8 101940 68
2005-05-24 08:04 51°11.111 2°41.999 14.5 290 12.8 101950 68
2005-05-24 08:05 51°11.11 2°41.993 15.3 270 12.8 101970 69
2005-05-24 08:06 51°11.109 2°41.985 9.6 257 12.8 101970 69
2005-05-24 08:07 51°11.108 2°41.975 10.9 256 12.8 101980 71
2005-05-24 08:08 51°11.11 2°41.965 9.8 249 12.8 101980 70
2005-05-24 08:09 51°11.112 2°41.954 8.7 256 12.7 101970 70
2005-05-24 08:10 51°11.117 2°41.941 10.5 261 12.7 101970 70
2005-05-24 08:11 51°11.142 2°41.872 14 313 12.7 101970 70
2005-05-24 08:12 51°11.107 2°41.651 17.9 350 12.7 101940 70
2005-05-24 08:13 51°10.991 2°41.341 17.9 354 12.8 101950 72
2005-05-24 08:14 51°10.883 2°41.003 19.2 350 12.8 101930 71
2005-05-24 08:15 51°10.785 2°40.658 17.6 348 12.8 101930 70
2005-05-24 08:16 51°10.687 2°40.311 17.8 343 12.8 101940 72
2005-05-24 08:17 51°10.608 2°39.946 17.6 341 12.8 101920 71
2005-05-24 08:18 51°10.535 2°39.582 15.7 343 12.9 101930 71
2005-05-24 08:19 51°10.461 2°39.215 18.5 339 12.9 101940 71
2005-05-24 08:20 51°10.388 2°38.847 15 344 12.9 101930 72
2005-05-24 08:21 51°10.313 2°38.481 18 339 12.9 101920 71
2005-05-24 08:22 51°10.236 2°38.114 17.9 340 12.9 101930 71
2005-05-24 08:23 51°10.17 2°37.741 17.3 339 12.9 101920 69
2005-05-24 08:24 51°10.115 2°37.362 17.4 339 12.9 101930 70
2005-05-24 08:25 51°10.08 2°36.976 18.4 332 12.8 101920 69
2005-05-24 08:26 51°10.05 2°36.595 17.8 324 12.8 101920 69
2005-05-24 08:27 51°10.054 2°36.205 15.8 318 12.8 101920 69
2005-05-24 08:28 51°10.143 2°35.865 11.8 291 12.8 101930 69
2005-05-24 08:29 51°10.338 2°35.76 4.8 239 12.8 101970 70
2005-05-24 08:30 51°10.537 2°35.843 4.1 229 12.8 101980 70
2005-05-24 08:31 51°10.722 2°35.991 1.9 197 12.8 101980 70
2005-05-24 08:32 51°10.903 2°36.151 2.6 205 13 101980 69
2005-05-24 08:33 51°11.083 2°36.315 2.2 191 13.1 101980 68
2005-05-24 08:34 51°11.25 2°36.507 3 152 13.1 101970 69
2005-05-24 08:35 51°11.418 2°36.694 3.2 162 13.1 101970 69
2005-05-24 08:36 51°11.593 2°36.867 1.9 187 13.1 101970 69
2005-05-24 08:37 51°11.772 2°37.033 3.4 156 13.1 101970 70
2005-05-24 08:38 51°11.947 2°37.203 5.2 167 13.1 101970 69
2005-05-24 08:39 51°12.123 2°37.371 2.6 155 13.1 101970 68
2005-05-24 08:40 51°12.297 2°37.536 2.9 167 13.1 101970 70
2005-05-24 08:41 51°12.476 2°37.689 2.4 156 13.1 101970 70
2005-05-24 08:42 51°12.658 2°37.84 2.2 208 13.3 101960 70
2005-05-24 08:43 51°12.837 2°37.997 2.3 194 13.4 101960 69
2005-05-24 08:44 51°13.018 2°38.149 2.2 206 13.5 101960 68
2005-05-24 08:45 51°13.201 2°38.304 3.4 192 13.6 101960 67
2005-05-24 08:46 51°13.384 2°38.458 3 168 13.6 101960 68
2005-05-24 08:47 51°13.574 2°38.589 2.2 190 13.6 101960 68
2005-05-24 08:48 51°13.769 2°38.715 3.4 207 13.7 101960 68
2005-05-24 08:49 51°13.971 2°38.804 6.3 234 13.5 101960 67
2005-05-24 08:50 51°14.181 2°38.79 4.7 258 13.4 101960 68
2005-05-24 08:51 51°14.385 2°38.688 11.2 281 13.3 101950 69
2005-05-24 08:52 51°14.571 2°38.511 8.8 283 13.3 101940 70
2005-05-24 08:53 51°14.754 2°38.325 12.7 268 13.3 101940 70
2005-05-24 08:54 51°14.937 2°38.14 10.4 281 13.3 101940 71
2005-05-24 08:55 51°15.117 2°37.948 10.4 273 13.3 101920 71
2005-05-24 08:56 51°15.295 2°37.741 10.3 284 13.3 101940 71
2005-05-24 08:57 51°15.469 2°37.505 9.8 284 13.2 101930 71
2005-05-24 08:58 51°15.645 2°37.275 11.7 288 13.2 101930 71
2005-05-24 08:59 51°15.824 2°37.058 9.8 274 13.2 101920 71
2005-05-24 09:00 51°16.034 2°36.924 9.9 265 13.2 101940 72
2005-05-24 09:01 51°16.249 2°36.833 5.3 262 13.2 101940 71
2005-05-24 09:02 51°16.444 2°36.771 8.6 243 13.2 101940 72
2005-05-24 09:03 51°16.573 2°36.757 6.5 226 13.1 101940 71
2005-05-24 09:04 51°16.618 2°36.744 9.5 176 13 101940 71
2005-05-24 09:05 51°16.622 2°36.733 11.6 143 13.2 101940 72
2005-05-24 09:06 51°16.62 2°36.728 10.4 128 13 101940 72
2005-05-24 09:07 51°16.617 2°36.722 10.2 128 13 101930 72
2005-05-24 09:08 51°16.609 2°36.712 9.3 114 13 101940 73
2005-05-24 09:09 51°16.601 2°36.699 13 100 13 101930 74
2005-05-24 09:10 51°16.594 2°36.684 11.9 96 12.9 101930 73
2005-05-24 09:11 51°16.588 2°36.669 10.4 82 12.9 101920 73
2005-05-24 09:12 51°16.583 2°36.658 12.6 89 12.9 101930 72
2005-05-24 09:13 51°16.525 2°36.675 15.5 35 12.9 101910 72
2005-05-24 09:14 51°16.423 2°36.532 15.5 334 12.9 101900 71
2005-05-24 09:15 51°16.476 2°36.211 13.9 300 13 101880 72
2005-05-24 09:16 51°16.636 2°35.961 10 281 13.1 101910 71
2005-05-24 09:17 51°16.824 2°35.772 11.4 277 13.2 101930 71
2005-05-24 09:18 51°17.01 2°35.591 12.7 275 13.2 101930 70
2005-05-24 09:19 51°17.179 2°35.373 13.3 276 13.3 101920 70
2005-05-24 09:20 51°17.342 2°35.136 11.4 291 13.3 101920 70
2005-05-24 09:21 51°17.492 2°34.87 13 290 13.3 101900 71
2005-05-24 09:22 51°17.638 2°34.59 14.1 290 13.2 101900 70
2005-05-24 09:23 51°17.785 2°34.309 11.9 295 13.2 101900 70
2005-05-24 09:24 51°17.93 2°34.029 12.4 292 13.2 101900 71
2005-05-24 09:25 51°18.078 2°33.745 10.7 297 13.2 101900 71
2005-05-24 09:26 51°18.225 2°33.467 12.1 292 13.3 101900 70
2005-05-24 09:27 51°18.372 2°33.192 9.8 301 13.3 101890 71
2005-05-24 09:28 51°18.516 2°32.913 12.2 298 13.3 101880 72
2005-05-24 09:29 51°18.655 2°32.628 13.3 291 13.3 101880 70
2005-05-24 09:30 51°18.792 2°32.335 13.6 295 13.3 101870 70
2005-05-24 09:31 51°18.932 2°32.047 12.9 291 13.3 101880 70
2005-05-24 09:32 51°19.078 2°31.764 13.2 294 13.3 101890 70
2005-05-24 09:33 51°19.222 2°31.485 12.4 291 13.2 101870 70
2005-05-24 09:34 51°19.366 2°31.201 13.7 290 13.2 101870 70
2005-05-24 09:35 51°19.509 2°30.919 12.7 295 13.1 101870 71
2005-05-24 09:36 51°19.655 2°30.638 11.6 287 13.1 101850 71
2005-05-24 09:37 51°19.802 2°30.366 12.8 292 13.1 101870 71
2005-05-24 09:38 51°19.914 2°30.165 13.3 266 13.1 101870 71
2005-05-24 09:39 51°20.005 2°30.068 7.3 254 13 101880 70
2005-05-24 09:40 51°20.037 2°30.037 12.7 220 12.9 101890 71
2005-05-24 09:41 51°20.057 2°30.029 9.7 229 12.9 101900 71
2005-05-24 09:42 51°20.078 2°30.018 11.2 244 12.8 101870 72
2005-05-24 09:43 51°20.095 2°30.003 7.9 253 12.8 101880 72
2005-05-24 09:44 51°20.106 2°29.99 10.6 265 12.8 101880 73
2005-05-24 09:45 51°20.115 2°29.981 9.9 261 12.8 101880 72
2005-05-24 09:46 51°20.131 2°29.957 8 255 12.8 101870 73
2005-05-24 09:47 51°20.197 2°29.976 11.7 139 12.8 101890 72
2005-05-24 09:48 51°20.255 2°30.195 7.8 120 12.8 101880 70
2005-05-24 09:49 51°20.33 2°30.511 8.6 110 12.8 101890 72
2005-05-24 09:50 51°20.443 2°30.796 4.1 112 12.9 101890 72
2005-05-24 09:51 51°20.572 2°31.08 5.6 119 12.9 101900 73
2005-05-24 09:52 51°20.697 2°31.364 7.6 134 12.9 101900 73
2005-05-24 09:53 51°20.807 2°31.66 6.3 125 12.9 101900 72
2005-05-24 09:54 51°20.907 2°31.961 6.8 119 12.9 101900 72
2005-05-24 09:55 51°21.018 2°32.249 7.1 105 12.9 101910 72
2005-05-24 09:56 51°21.121 2°32.544 7.6 126 12.9 101910 72
2005-05-24 09:57 51°21.23 2°32.841 6.8 118 12.9 101900 72
2005-05-24 09:58 51°21.337 2°33.132 6.7 106 12.9 101900 71
2005-05-24 09:59 51°21.441 2°33.432 7.6 120 12.9 101910 72
2005-05-24 10:00 51°21.554 2°33.727 8 125 13 101900 71
2005-05-24 10:01 51°21.669 2°34.024 6.1 113 13 101900 71
2005-05-24 10:02 51°21.782 2°34.323 8.6 125 13 101900 70
2005-05-24 10:03 51°21.891 2°34.632 7.4 124 13 101900 70
2005-05-24 10:04 51°21.998 2°34.935 6.9 109 13 101910 71
2005-05-24 10:05 51°22.105 2°35.234 6.6 135 13 101900 71
2005-05-24 10:06 51°22.208 2°35.537 6.8 105 13 101910 71
2005-05-24 10:07 51°22.299 2°35.861 7.6 111 13 101900 71
2005-05-24 10:08 51°22.398 2°36.174 5.5 96 13.1 101900 71
2005-05-24 10:09 51°22.5 2°36.49 5.5 111 13.1 101900 72
2005-05-24 10:10 51°22.597 2°36.796 7.3 117 13 101900 72
2005-05-24 10:11 51°22.696 2°37.112 6.1 106 13 101900 72
2005-05-24 10:12 51°22.794 2°37.426 5.9 111 13 101900 72
2005-05-24 10:13 51°22.891 2°37.744 6.1 120 13.1 101900 72
2005-05-24 10:14 51°22.993 2°38.046 7.4 114 13 101900 72
2005-05-24 10:15 51°23.081 2°38.356 7.7 115 13.1 101900 72
2005-05-24 10:16 51°23.165 2°38.675 7.7 92 13.1 101900 73
2005-05-24 10:17 51°23.247 2°38.996 7 113 13.1 101900 74
2005-05-24 10:18 51°23.334 2°39.319 6.2 113 13.1 101900 74
2005-05-24 10:19 51°23.42 2°39.645 8.8 110 13 101900 74
2005-05-24 10:20 51°23.506 2°39.961 7.8 110 13 101900 73
2005-05-24 10:21 51°23.593 2°40.292 6.6 107 13 101900 73
2005-05-24 10:22 51°23.688 2°40.617 7.1 107 13 101890 73
2005-05-24 10:23 51°23.772 2°40.944 9.6 110 13 101890 72
2005-05-24 10:24 51°23.862 2°41.271 7.4 114 13 101890 71
2005-05-24 10:25 51°23.963 2°41.58 6.7 118 13 101900 72
2005-05-24 10:26 51°24.06 2°41.893 10.1 112 13 101890 72
2005-05-24 10:27 51°24.155 2°42.212 9 115 13.1 101900 72
2005-05-24 10:28 51°24.256 2°42.531 6.4 116 13.1 101900 71
2005-05-24 10:29 51°24.359 2°42.846 7.9 126 13.1 101900 72
2005-05-24 10:30 51°24.46 2°43.166 7 103 13.2 101900 71
2005-05-24 10:31 51°24.556 2°43.488 8.1 117 13.2 101900 71
2005-05-24 10:32 51°24.658 2°43.812 7.4 109 13.2 101900 71
2005-05-24 10:33 51°24.757 2°44.137 6.5 107 13.2 101900 72
2005-05-24 10:34 51°24.84 2°44.47 8.5 99 13.1 101890 71
2005-05-24 10:35 51°24.922 2°44.798 7.5 98 13.1 101900 72
2005-05-24 10:36 51°25.015 2°45.122 6.8 99 13.1 101900 73
2005-05-24 10:37 51°25.1 2°45.455 8.6 93 13.1 101900 72
2005-05-24 10:38 51°25.183 2°45.784 8.5 100 13.1 101900 73
2005-05-24 10:39 51°25.27 2°46.116 8.7 86 13.1 101900 73
2005-05-24 10:40 51°25.34 2°46.463 8.2 95 13.1 101900 73
2005-05-24 10:41 51°25.414 2°46.807 10.1 100 13.1 101900 73
2005-05-24 10:42 51°25.492 2°47.152 9.7 100 13.1 101890 72
2005-05-24 10:43 51°25.583 2°47.49 7.4 101 13.1 101900 72
2005-05-24 10:44 51°25.686 2°47.807 9.5 106 13.1 101890 72
2005-05-24 10:45 51°25.796 2°48.106 7.1 117 13.1 101890 71
2005-05-24 10:46 51°25.896 2°48.295 7.9 156 13.1 101900 72
2005-05-24 10:47 51°25.973 2°48.396 7.3 151 13.1 101900 73
2005-05-24 10:48 51°26.014 2°48.485 9.9 136 13.1 101890 73
2005-05-24 10:49 51°26.025 2°48.5 10.3 118 13 101870 72
2005-05-24 10:50 51°26.037 2°48.522 11.2 112 13.1 101890 73
2005-05-24 10:51 51°26.048 2°48.546 11.7 100 13 101880 72
2005-05-24 10:52 51°26.057 2°48.576 11.3 90 13.1 101880 71
2005-05-24 10:53 51°26.064 2°48.606 9.6 90 13.1 101880 72
2005-05-24 10:54 51°26.073 2°48.636 9.1 84 13.1 101880 72
2005-05-24 10:55 51°26.082 2°48.667 12 84 13.1 101880 72
2005-05-24 10:56 51°26.091 2°48.7 11.3 84 13.1 101880 71
2005-05-24 10:57 51°26.102 2°48.732 10.9 86 13.1 101870 71
2005-05-24 10:58 51°26.112 2°48.763 11.4 89 13.1 101880 72
2005-05-24 10:59 51°26.124 2°48.797 11.2 90 13.1 101880 71
2005-05-24 11:00 51°26.112 2°48.948 10.5 83 13.2 101870 71
2005-05-24 11:01 51°26.169 2°49.285 8.4 93 13.2 101880 73
2005-05-24 11:02 51°26.237 2°49.648 8.8 89 13.2 101880 72
2005-05-24 11:03 51°26.298 2°50.006 8.2 99 13.2 101880 72
2005-05-24 11:04 51°26.368 2°50.366 10.9 85 13.2 101880 72
2005-05-24 11:05 51°26.411 2°50.738 10.1 84 13.3 101880 72
2005-05-24 11:06 51°26.457 2°51.115 10.4 97 13.3 101880 72
2005-05-24 11:07 51°26.504 2°51.489 10.4 96 13.3 101870 72
2005-05-24 11:08 51°26.549 2°51.862 8.3 81 13.3 101870 72
2005-05-24 11:09 51°26.591 2°52.236 8.7 83 13.3 101880 72
2005-05-24 11:10 51°26.627 2°52.606 11 88 13.3 101870 72
2005-05-24 11:11 51°26.67 2°52.979 10.3 92 13.3 101880 71
2005-05-24 11:12 51°26.711 2°53.356 9.8 95 13.4 101880 71
2005-05-24 11:13 51°26.799 2°53.714 6.7 93 13.4 101880 72
2005-05-24 11:14 51°26.893 2°54.068 8.9 102 13.5 101890 71
2005-05-24 11:15 51°26.965 2°54.44 9.4 86 13.5 101880 70
2005-05-24 11:16 51°27.032 2°54.808 10.5 90 13.5 101880 70
2005-05-24 11:17 51°27.092 2°55.185 8.6 89 13.5 101870 69
2005-05-24 11:18 51°27.151 2°55.556 9.4 85 13.5 101880 69
2005-05-24 11:19 51°27.215 2°55.929 8.2 96 13.6 101870 69
2005-05-24 11:20 51°27.28 2°56.303 8.3 91 13.6 101880 70
2005-05-24 11:21 51°27.342 2°56.664 7.8 82 13.6 101880 71
2005-05-24 11:22 51°27.401 2°57.041 10.1 84 13.5 101880 71
2005-05-24 11:23 51°27.459 2°57.422 8.9 85 13.5 101880 71
2005-05-24 11:24 51°27.521 2°57.8 9.7 93 13.5 101880 70
2005-05-24 11:25 51°27.579 2°58.166 10.8 87 13.5 101880 69
2005-05-24 11:26 51°27.636 2°58.542 9.4 90 13.6 101880 69
2005-05-24 11:27 51°27.691 2°58.922 8.9 90 13.6 101870 70
2005-05-24 11:28 51°27.749 2°59.3 10.9 87 13.6 101870 69
2005-05-24 11:29 51°27.808 2°59.678 10.8 94 13.6 101870 69
2005-05-24 11:30 51°27.859 3°0.061 9.7 96 13.6 101870 70
2005-05-24 11:31 51°27.914 3°0.439 9.5 90 13.7 101880 69
2005-05-24 11:32 51°27.971 3°0.824 8.9 91 13.7 101870 70
2005-05-24 11:33 51°28.034 3°1.202 9.6 84 13.7 101870 68
2005-05-24 11:34 51°28.103 3°1.581 9.2 98 13.7 101880 69
2005-05-24 11:35 51°28.162 3°1.953 10.2 96 13.7 101880 68
2005-05-24 11:36 51°28.218 3°2.338 9.6 86 13.8 101870 67
2005-05-24 11:37 51°28.277 3°2.714 10.2 93 13.8 101880 67
2005-05-24 11:38 51°28.307 3°3.101 13 85 13.8 101880 68
2005-05-24 11:39 51°28.273 3°3.32 10.3 50 13.8 101880 68
2005-05-24 11:40 51°28.252 3°3.438 10.6 98 13.8 101870 68
2005-05-24 11:41 51°28.266 3°3.523 7.9 112 13.8 101890 69
2005-05-24 11:42 51°28.287 3°3.557 8.4 118 13.9 101890 69
2005-05-24 11:43 51°28.309 3°3.6 7.2 123 13.9 101890 70
2005-05-24 11:44 51°28.328 3°3.653 9.5 103 13.8 101880 71
2005-05-24 11:45 51°28.347 3°3.711 8.8 99 13.9 101890 69
2005-05-24 11:46 51°28.364 3°3.77 9.9 81 13.9 101880 68
2005-05-24 11:47 51°28.381 3°3.829 8.2 79 13.9 101880 69
2005-05-24 11:48 51°28.398 3°3.89 7 78 13.9 101890 68
2005-05-24 11:49 51°28.415 3°3.948 6.6 80 13.9 101880 69
2005-05-24 11:50 51°28.433 3°4.007 8.9 82 13.8 101880 69
2005-05-24 11:51 51°28.408 3°4.151 12.1 54 13.9 101880 69
2005-05-24 11:52 51°28.293 3°4.454 14.4 41 13.9 101850 69
2005-05-24 11:53 51°28.149 3°4.738 14.3 43 13.9 101850 70
2005-05-24 11:54 51°28.003 3°5.029 14.5 53 13.9 101850 70
2005-05-24 11:55 51°27.855 3°5.316 12.8 41 13.9 101840 70
2005-05-24 11:56 51°27.704 3°5.601 14.1 50 13.9 101840 69
2005-05-24 11:57 51°27.555 3°5.888 14.5 50 14 101850 69
2005-05-24 11:58 51°27.408 3°6.173 14.7 52 14 101860 68
2005-05-24 11:59 51°27.26 3°6.463 13.8 45 14.1 101850 67
2005-05-24 12:00 51°27.109 3°6.751 14.5 56 14.1 101840 68
2005-05-24 12:01 51°26.96 3°7.039 15.5 50 14.1 101850 68
2005-05-24 12:02 51°26.813 3°7.322 14.3 56 14.2 101840 68
2005-05-24 12:03 51°26.664 3°7.61 14.1 57 14.2 101840 68
2005-05-24 12:04 51°26.526 3°7.877 13.5 55 14.2 101840 67
2005-05-24 12:05 51°26.459 3°8.085 10.2 103 14.3 101860 67
2005-05-24 12:06 51°26.481 3°8.247 9.6 134 14.3 101870 66
2005-05-24 12:07 51°26.507 3°8.336 11.6 127 14.3 101870 66
2005-05-24 12:08 51°26.527 3°8.358 9.5 137 14.4 101870 65
2005-05-24 12:09 51°26.545 3°8.396 12.2 138 14.4 101870 66
2005-05-24 12:10 51°26.566 3°8.444 10.5 134 14.4 101870 66
2005-05-24 12:11 51°26.584 3°8.499 8.2 113 14.5 101870 65
2005-05-24 12:12 51°26.599 3°8.556 10 103 14.5 101870 67
2005-05-24 12:13 51°26.614 3°8.613 10.3 95 14.5 101860 65
2005-05-24 12:14 51°26.621 3°8.69 10.7 79 14.5 101860 66
2005-05-24 12:15 51°26.546 3°8.945 14.7 55 14.5 101840 66
2005-05-24 12:16 51°26.432 3°9.272 15.1 59 14.4 101830 67
2005-05-24 12:17 51°26.314 3°9.601 16.5 56 14.4 101830 67
2005-05-24 12:18 51°26.193 3°9.932 14.7 52 14.5 101820 65
2005-05-24 12:19 51°26.069 3°10.261 16.3 57 14.5 101810 65
2005-05-24 12:20 51°25.948 3°10.586 15.3 63 14.6 101820 65
2005-05-24 12:21 51°25.827 3°10.914 13.5 55 14.6 101830 64
2005-05-24 12:22 51°25.7 3°11.237 16.4 62 14.5 101840 66
2005-05-24 12:23 51°25.581 3°11.568 14.9 70 14.6 101830 64
2005-05-24 12:24 51°25.52 3°11.94 13.8 84 14.6 101840 64
2005-05-24 12:25 51°25.521 3°12.338 13.4 99 14.6 101850 63
2005-05-24 12:26 51°25.528 3°12.74 10.7 95 14.7 101870 62
2005-05-24 12:27 51°25.539 3°13.137 10.6 102 14.7 101860 62
2005-05-24 12:28 51°25.566 3°13.534 9.1 109 14.8 101870 62
2005-05-24 12:29 51°25.588 3°13.924 8.9 104 14.8 101870 62
2005-05-24 12:30 51°25.611 3°14.32 9.1 91 14.8 101870 63
2005-05-24 12:31 51°25.633 3°14.716 10.4 97 14.8 101870 62
2005-05-24 12:32 51°25.643 3°15.111 10.1 104 14.8 101870 62
2005-05-24 12:33 51°25.67 3°15.509 10.4 102 14.9 101870 62
2005-05-24 12:34 51°25.695 3°15.903 12.2 103 15 101870 60
2005-05-24 12:35 51°25.72 3°16.298 10 103 15 101870 60
2005-05-24 12:36 51°25.747 3°16.695 9.1 93 15 101880 59
2005-05-24 12:37 51°25.777 3°17.089 10.5 107 15.1 101880 59
2005-05-24 12:38 51°25.802 3°17.462 8.6 104 15.1 101880 62
2005-05-24 12:39 51°25.84 3°17.692 7.6 154 15.1 101890 64
2005-05-24 12:40 51°25.908 3°17.775 8.6 210 15 101900 62
2005-05-24 12:41 51°25.927 3°17.821 10.4 241 15 101910 63
2005-05-24 12:42 51°25.945 3°17.864 5.7 257 15 101900 62
2005-05-24 12:43 51°25.966 3°17.896 7.3 261 15 101890 64
2005-05-24 12:44 51°25.988 3°17.92 12.6 276 15 101890 63
2005-05-24 12:45 51°26.007 3°17.933 9.9 297 15.1 101890 61
2005-05-24 12:46 51°26.022 3°17.939 11.6 309 15.2 101890 60
2005-05-24 12:47 51°26.031 3°17.948 11.9 37 15.3 101880 60
2005-05-24 12:48 51°26.03 3°17.947 12.1 10 15.4 101860 57
2005-05-24 12:49 51°25.921 3°17.87 15 359 15.5 101860 58
2005-05-24 12:50 51°25.759 3°17.687 20.2 2 15.4 101830 59
2005-05-24 12:51 51°25.609 3°17.484 17.2 360 15.4 101810 57
2005-05-24 12:52 51°25.462 3°17.284 16.9 357 15.5 101830 58
2005-05-24 12:53 51°25.319 3°17.085 17.3 358 15.5 101830 57
2005-05-24 12:54 51°25.17 3°16.884 20.3 357 15.5 101840 60
2005-05-24 12:55 51°25.027 3°16.689 19.5 353 15.5 101780 57
2005-05-24 12:56 51°24.882 3°16.486 19.5 353 15.6 101810 58
2005-05-24 12:57 51°24.729 3°16.283 17.6 359 15.6 101820 58
2005-05-24 12:58 51°24.575 3°16.092 16.8 353 15.7 101820 59
2005-05-24 12:59 51°24.429 3°15.909 18.3 360 15.6 101820 59
2005-05-24 13:00 51°24.281 3°15.711 20.9 353 15.6 101790 57
2005-05-24 13:01 51°24.15 3°15.49 16.2 349 15.7 101790 56
2005-05-24 13:02 51°24.039 3°15.241 17.9 345 15.6 101800 56
2005-05-24 13:03 51°23.928 3°14.992 16.6 349 15.7 101800 56
2005-05-24 13:04 51°23.776 3°14.814 17.4 6 15.8 101810 57
2005-05-24 13:05 51°23.595 3°14.687 16.5 4 15.7 101810 57
2005-05-24 13:06 51°23.426 3°14.539 15.1 356 15.7 101830 58
2005-05-24 13:07 51°23.283 3°14.334 17.2 348 15.7 101820 58
2005-05-24 13:08 51°23.147 3°14.125 18.4 352 15.8 101800 56
2005-05-24 13:09 51°23.011 3°13.913 20.1 337 15.9 101810 56
2005-05-24 13:10 51°22.874 3°13.705 20.9 346 15.9 101790 57
2005-05-24 13:11 51°22.746 3°13.489 19.3 349 16 101800 55
2005-05-24 13:12 51°22.64 3°13.318 15.4 347 16 101810 56
2005-05-24 13:13 51°22.611 3°13.256 13.1 318 16 101830 55
2005-05-24 13:14 51°22.611 3°13.258 12.5 324 16 101850 55
2005-05-24 13:15 51°22.617 3°13.278 11.4 323 16 101860 54
2005-05-24 13:16 51°22.626 3°13.307 10.3 314 16 101870 56
2005-05-24 13:17 51°22.638 3°13.343 12.4 319 16 101860 56
2005-05-24 13:18 51°22.653 3°13.383 12.7 312 16 101880 55
2005-05-24 13:19 51°22.668 3°13.419 12 320 16 101880 55
2005-05-24 13:20 51°22.683 3°13.456 11.5 229 16 101870 55
2005-05-24 13:21 51°22.659 3°13.362 16.4 339 16 101840 55
2005-05-24 13:22 51°22.589 3°13.102 16.8 339 16 101820 55
2005-05-24 13:23 51°22.528 3°12.823 16.6 339 16 101830 56
2005-05-24 13:24 51°22.485 3°12.536 14.5 335 16 101830 56
2005-05-24 13:25 51°22.479 3°12.244 19 330 16.1 101800 54
2005-05-24 13:26 51°22.438 3°11.967 18.8 345 16.1 101810 54
2005-05-24 13:27 51°22.346 3°11.716 15.8 345 16.1 101810 54
2005-05-24 13:28 51°22.258 3°11.464 18.4 337 16.2 101820 54
2005-05-24 13:29 51°22.17 3°11.21 19.1 348 16.2 101820 55
2005-05-24 13:30 51°22.085 3°10.946 18.9 348 16.1 101820 55
2005-05-24 13:31 51°22.002 3°10.681 17 339 16 101820 57
2005-05-24 13:32 51°21.923 3°10.417 18.7 343 16 101790 55
2005-05-24 13:33 51°21.846 3°10.156 17.9 341 16.1 101790 55
2005-05-24 13:34 51°21.767 3°9.896 16.1 342 16 101810 55
2005-05-24 13:35 51°21.681 3°9.638 17.8 339 16 101810 56
2005-05-24 13:36 51°21.595 3°9.377 18.6 339 16 101800 55
2005-05-24 13:37 51°21.502 3°9.117 14.9 346 15.9 101840 57
2005-05-24 13:38 51°21.397 3°8.866 18.5 351 15.9 101850 58
2005-05-24 13:39 51°21.29 3°8.618 16.7 355 15.9 101840 57
2005-05-24 13:40 51°21.179 3°8.373 18.1 354 15.9 101850 58
2005-05-24 13:41 51°21.072 3°8.128 16.8 356 15.9 101850 58
2005-05-24 13:42 51°20.963 3°7.884 20 -999 15.9 101830 56
2005-05-24 13:43 51°20.85 3°7.636 19.2 4 15.9 101850 56
2005-05-24 13:44 51°20.73 3°7.393 18.4 357 16 101830 55
2005-05-24 13:45 51°20.616 3°7.15 17 354 16 101840 56
2005-05-24 13:46 51°20.493 3°6.911 16.6 360 16 101840 57
2005-05-24 13:46 51°20.391 3°6.72 15.7 350 16 101830 55
2005-05-24 13:47 51°20.279 3°6.504 16.4 356 16.1 101830 55
2005-05-24 13:48 51°20.158 3°6.282 14.7 356 16.1 101840 57
2005-05-24 13:49 51°20.042 3°6.037 15.3 348 16 101830 58
2005-05-24 13:50 51°19.932 3°5.795 17.8 352 16 101840 57
2005-05-24 13:51 51°19.834 3°5.538 17.6 350 16 101840 56
2005-05-24 13:52 51°19.728 3°5.281 18 341 16 101830 58
2005-05-24 13:53 51°19.623 3°5.026 17.9 354 16 101840 58
2005-05-24 13:54 51°19.519 3°4.775 16.9 352 16 101820 56
2005-05-24 13:55 51°19.416 3°4.513 15.8 -999 16 101850 58
2005-05-24 13:56 51°19.316 3°4.262 22.2 353 15.8 101840 59
2005-05-24 13:57 51°19.217 3°4.007 17.8 348 15.8 101820 57
2005-05-24 13:58 51°19.116 3°3.747 17.4 359 15.8 101860 57
2005-05-24 13:59 51°19.017 3°3.496 19 5 15.8 101840 56
2005-05-24 14:00 51°18.914 3°3.244 18.1 8 15.8 101830 57
2005-05-24 14:01 51°18.808 3°2.987 20 358 15.7 101830 58
2005-05-24 14:02 51°18.707 3°2.74 20.1 4 15.7 101860 57
2005-05-24 14:03 51°18.603 3°2.488 19.8 -999 15.8 101850 57
2005-05-24 14:04 51°18.498 3°2.231 17 358 15.7 101840 59
2005-05-24 14:05 51°18.396 3°1.976 18 351 15.7 101850 58
2005-05-24 14:06 51°18.289 3°1.719 16.3 350 15.7 101870 60
2005-05-24 14:07 51°18.184 3°1.463 17.8 345 15.6 101850 59
2005-05-24 14:08 51°18.081 3°1.207 17.3 356 15.6 101860 60
2005-05-24 14:09 51°17.978 3°0.957 19.3 355 15.7 101840 58
2005-05-24 14:10 51°17.877 3°0.711 16.3 350 15.7 101860 58
2005-05-24 14:11 51°17.775 3°0.459 19.8 357 15.7 101820 57
2005-05-24 14:12 51°17.674 3°0.21 17.2 356 15.7 101850 59
2005-05-24 14:13 51°17.573 2°59.965 19.2 357 15.7 101860 57
2005-05-24 14:14 51°17.468 2°59.712 16.4 2 15.8 101860 59
2005-05-24 14:15 51°17.365 2°59.464 15.6 5 15.7 101860 59
2005-05-24 14:16 51°17.261 2°59.21 16 2 15.7 101850 61
2005-05-24 14:17 51°17.159 2°58.957 20.5 357 15.6 101860 60
2005-05-24 14:18 51°17.052 2°58.698 18 359 15.6 101850 60
2005-05-24 14:19 51°16.944 2°58.438 18.6 357 15.5 101850 61
2005-05-24 14:20 51°16.841 2°58.188 19.5 360 15.5 101870 63
2005-05-24 14:21 51°16.736 2°57.937 19.1 3 15.4 101840 63
2005-05-24 14:22 51°16.632 2°57.688 19.9 357 15.5 101880 61
2005-05-24 14:23 51°16.532 2°57.435 18 349 15.5 101860 61
2005-05-24 14:24 51°16.432 2°57.183 18.2 356 15.5 101860 62
2005-05-24 14:25 51°16.331 2°56.925 18.2 358 15.5 101890 62
2005-05-24 14:26 51°16.229 2°56.669 18 353 15.4 101870 64
2005-05-24 14:27 51°16.128 2°56.417 17.3 357 15.3 101850 63
2005-05-24 14:28 51°16.026 2°56.16 17.8 356 15.3 101860 65
2005-05-24 14:29 51°15.921 2°55.908 16.8 355 15.3 101880 66
2005-05-24 14:30 51°15.812 2°55.656 17.3 351 15.2 101880 65
2005-05-24 14:31 51°15.687 2°55.417 16.5 3 15.2 101880 65
2005-05-24 14:32 51°15.53 2°55.234 17.5 15 15.2 101890 67
2005-05-24 14:33 51°15.348 2°55.119 15 23 15.1 101890 67
2005-05-24 14:34 51°15.157 2°55.064 15.3 21 15.1 101890 67
2005-05-24 14:35 51°14.959 2°55.019 16.7 22 15.1 101890 65
2005-05-24 14:36 51°14.768 2°54.977 17.6 19 15.2 101900 65
2005-05-24 14:37 51°14.589 2°54.983 15.9 31 15.3 101870 63
2005-05-24 14:38 51°14.418 2°55.028 15.2 45 15.4 101900 63
2005-05-24 14:39 51°14.291 2°55.202 9.1 72 15.5 101910 64
2005-05-24 14:40 51°14.205 2°55.355 5.3 107 15.6 101920 63
2005-05-24 14:41 51°14.115 2°55.455 7.9 28 15.7 101930 63
2005-05-24 14:42 51°14.037 2°55.506 7.8 30 15.8 101920 62
2005-05-24 14:43 51°13.987 2°55.535 8.4 49 15.8 101920 63
2005-05-24 14:44 51°13.95 2°55.567 7.5 74 15.8 101930 63
2005-05-24 14:45 51°13.884 2°55.61 11 27 15.8 101930 63
2005-05-24 14:46 51°13.777 2°55.69 7.2 47 15.7 101930 64
2005-05-24 14:47 51°13.708 2°55.806 6.7 107 15.8 101920 64
2005-05-24 14:48 51°13.656 2°55.921 8.5 97 15.8 101940 64
2005-05-24 14:49 51°13.621 2°56.036 4 83 15.7 101930 64
2005-05-24 14:50 51°13.6 2°56.099 6.3 107 15.7 101950 65